Nizhneangarsk, Russia
Current Conditions -  °F | °C
As of 1:30 PM on Tuesday 21 Oct 2014 (Local Time) from UIUU Reporting Station
Clear Clear  
Wind Chill: 27°   Ceiling: Unl
Heat Index: 27°   Visibility: 6mi
Dew Point:   Wind: 2mph
Humidity: 43%   Direction: NA
Pressure: 30.09"   Gusts: NA
Location:  55.78°N, 109.55°E
Report Text: UIUU 210530Z VRB01MPS 9999 SKC M03/M14 Q1019 NOSIG RMKQFE719/0959 26CLRD60
Loading
Personal Weather Stations






























Interactive Weather Map
Tropical Storm Tracking
New forecast layout! Learn more

10-Day Weather Forecast

Advertisements
Track Severe Weather on mobile